Time;durP1;ratioP1;P1;durP2;ratioP2;P2;SDS_P1;SDS_P2;PMS_P1;PMS_P2;Temp;Humidity;BMP_temperature;BMP_pressure;BME280_temperature;BME280_humidity;BME280_pressure;Samples;Min_cycle;Max_cycle;Signal;HPM_P1;HPM_P2
2023/02/28 00:00:20;;;;;;;7.28;3.17;;;;;;;18.33;41.35;102996.66;5123294;27;20027;-68
2023/02/28 00:02:45;;;;;;;6.35;3.10;;;;;;;18.30;41.23;102995.88;5124506;27;20494;-69
2023/02/28 00:05:13;;;;;;;7.07;3.10;;;;;;;18.28;41.35;102989.81;5124469;27;20031;-69
2023/02/28 00:07:39;;;;;;;8.70;3.65;;;;;;;18.28;41.11;102988.97;5124111;27;20111;-68
2023/02/28 00:10:07;;;;;;;5.45;2.97;;;;;;;18.25;41.17;102989.97;5124988;27;20084;-68
2023/02/28 00:12:33;;;;;;;5.93;3.47;;;;;;;18.27;41.22;102995.16;5124120;27;20031;-68
2023/02/28 00:14:58;;;;;;;7.32;3.30;;;;;;;18.25;40.98;102997.03;5124578;27;20394;-68
2023/02/28 00:17:23;;;;;;;4.93;2.70;;;;;;;18.24;40.72;102990.03;5124101;27;20054;-69
2023/02/28 00:19:50;;;;;;;5.97;3.15;;;;;;;18.23;40.98;102994.47;5124503;27;20134;-68
2023/02/28 00:22:18;;;;;;;6.38;3.00;;;;;;;18.21;40.89;102992.81;5123782;27;20190;-69
2023/02/28 00:24:43;;;;;;;8.00;3.08;;;;;;;18.22;41.00;103000.66;5124356;27;20033;-68
2023/02/28 00:27:10;;;;;;;5.90;3.03;;;;;;;18.19;41.11;102995.53;5105464;27;20390;-70
2023/02/28 00:29:36;;;;;;;7.85;3.00;;;;;;;18.16;41.10;102993.03;5123957;27;20174;-69
2023/02/28 00:32:01;;;;;;;6.30;3.15;;;;;;;18.17;41.20;102994.75;5105431;27;20438;-69
2023/02/28 00:34:27;;;;;;;5.60;3.20;;;;;;;18.16;41.16;102993.03;5124076;27;20065;-69
2023/02/28 00:36:52;;;;;;;6.07;3.22;;;;;;;18.11;40.77;102993.25;5123492;27;20890;-69
2023/02/28 00:39:17;;;;;;;8.40;3.30;;;;;;;18.14;41.01;102997.53;5124137;27;20035;-69
2023/02/28 00:41:43;;;;;;;6.57;3.50;;;;;;;18.08;41.00;102985.47;5123927;27;20031;-68
2023/02/28 00:44:09;;;;;;;5.65;3.03;;;;;;;18.11;40.91;102993.25;5105219;27;20391;-68
2023/02/28 00:46:34;;;;;;;5.57;2.90;;;;;;;18.08;40.87;102982.84;5123621;27;20106;-68
2023/02/28 00:48:59;;;;;;;7.82;3.22;;;;;;;18.09;40.95;102986.34;5123956;27;20487;-69
2023/02/28 00:51:25;;;;;;;6.05;2.97;;;;;;;18.08;40.85;102990.75;5123186;27;20027;-69
2023/02/28 00:53:50;;;;;;;7.70;3.33;;;;;;;18.04;40.57;102983.94;5123126;27;20027;-70
2023/02/28 00:56:15;;;;;;;5.95;3.47;;;;;;;18.05;40.75;102987.41;5123344;27;20267;-68
2023/02/28 00:58:40;;;;;;;6.35;3.22;;;;;;;18.02;40.76;102991.03;5123794;27;20074;-68
2023/02/28 01:01:06;;;;;;;6.47;3.05;;;;;;;18.02;40.69;102992.84;5123642;27;20540;-69
2023/02/28 01:03:31;;;;;;;6.03;2.72;;;;;;;18.01;40.77;102985.84;5123590;27;20070;-68
2023/02/28 01:05:57;;;;;;;7.88;3.30;;;;;;;17.97;40.92;102987.78;5122949;27;20023;-68
2023/02/28 01:08:23;;;;;;;5.93;2.90;;;;;;;17.98;40.99;102997.41;5123389;27;20071;-69
2023/02/28 01:10:48;;;;;;;6.07;3.35;;;;;;;17.96;41.28;102991.34;5104665;27;20485;-69
2023/02/28 01:13:14;;;;;;;5.18;3.05;;;;;;;17.95;40.89;103001.03;5104580;27;20030;-68
2023/02/28 01:15:45;;;;;;;4.82;2.92;;;;;;;17.93;40.74;103004.69;5123134;27;20455;-69
2023/02/28 01:18:10;;;;;;;7.05;2.92;;;;;;;17.88;40.74;102999.63;5123552;27;20031;-69
2023/02/28 01:20:39;;;;;;;6.68;3.17;;;;;;;17.90;40.61;103010.94;5122420;27;20061;-69
2023/02/28 01:23:04;;;;;;;6.82;3.33;;;;;;;17.88;40.88;103010.19;5122923;27;20498;-69
2023/02/28 01:25:29;;;;;;;6.90;3.05;;;;;;;17.89;40.72;103011.88;5123160;27;20055;-70
2023/02/28 01:27:55;;;;;;;5.35;2.85;;;;;;;17.88;40.70;103006.66;5123101;27;20037;-69
2023/02/28 01:30:20;;;;;;;6.00;3.00;;;;;;;17.86;40.47;103006.69;5122794;27;20042;-68
2023/02/28 01:32:46;;;;;;;6.22;2.90;;;;;;;17.85;40.69;103005.00;5122616;27;20035;-68
2023/02/28 01:35:11;;;;;;;6.53;2.70;;;;;;;17.83;40.79;103004.22;5122436;27;20531;-68
2023/02/28 01:37:36;;;;;;;7.30;3.10;;;;;;;17.84;40.78;103007.72;5122408;27;20031;-67
2023/02/28 01:40:02;;;;;;;9.65;3.05;;;;;;;17.82;40.69;103005.16;5122721;27;20425;-68
2023/02/28 01:42:28;;;;;;;6.35;3.47;;;;;;;17.81;40.50;103005.22;5122388;27;20054;-68
2023/02/28 01:45:00;;;;;;;6.63;3.47;;;;;;;17.80;40.45;103009.66;5122860;27;20346;-69
2023/02/28 01:47:40;;;;;;;6.35;3.03;;;;;;;17.77;40.73;102996.59;5122675;27;20023;-68
2023/02/28 01:50:09;;;;;;;5.60;3.15;;;;;;;17.69;40.52;102983.75;5122450;27;20031;-68
2023/02/28 01:52:35;;;;;;;5.75;3.00;;;;;;;17.75;40.80;102994.03;5122316;27;20062;-69
2023/02/28 01:55:04;;;;;;;6.38;2.83;;;;;;;17.75;40.82;102990.50;5122626;27;20042;-69
2023/02/28 01:57:37;;;;;;;5.68;3.10;;;;;;;17.74;40.79;102994.09;5122296;27;20031;-69
2023/02/28 02:00:07;;;;;;;7.55;3.65;;;;;;;17.73;40.76;102989.72;5122625;27;20134;-68
2023/02/28 02:02:33;;;;;;;5.13;2.78;;;;;;;17.72;40.79;102974.81;5122397;27;20122;-70
2023/02/28 02:05:05;;;;;;;5.68;3.03;;;;;;;17.68;40.54;102971.47;5121615;27;20510;-69
2023/02/28 02:07:39;;;;;;;8.18;3.00;;;;;;;17.68;40.83;102976.75;5121912;27;20126;-69
2023/02/28 02:10:18;;;;;;;8.05;3.03;;;;;;;17.70;40.78;102981.97;5122509;27;20073;-68
2023/02/28 02:13:08;;;;;;;5.72;2.90;;;;;;;17.66;40.95;102973.34;5122624;27;20039;-69
2023/02/28 02:15:36;;;;;;;7.68;3.40;;;;;;;17.64;40.46;102964.66;5121980;27;20031;-69
2023/02/28 02:18:27;;;;;;;6.30;3.17;;;;;;;17.59;40.74;102958.72;5122143;27;20099;-70
2023/02/28 02:21:18;;;;;;;6.28;3.20;;;;;;;17.64;40.65;102969.94;5121968;27;20118;-69
2023/02/28 02:23:52;;;;;;;6.25;3.55;;;;;;;17.65;40.59;102973.41;5121537;27;20035;-69
2023/02/28 02:26:23;;;;;;;;;;;;;;;17.69;40.63;102964.41;5122588;27;20038;-68
2023/02/28 02:29:10;;;;;;;5.85;3.08;;;;;;;17.63;40.46;102965.56;5103572;28;19923;-69
2023/02/28 02:31:42;;;;;;;6.82;3.15;;;;;;;17.64;40.46;102969.94;5122098;27;20531;-68
2023/02/28 02:34:29;;;;;;;5.15;2.92;;;;;;;17.62;40.61;102968.28;5121412;27;20031;-68
2023/02/28 02:37:16;;;;;;;6.63;3.08;;;;;;;17.58;40.59;102959.66;5086689;28;20341;-68
2023/02/28 02:40:20;;;;;;;5.78;3.20;;;;;;;17.59;40.34;102958.72;5104177;28;20035;-69
2023/02/28 02:42:58;;;;;;;7.32;3.20;;;;;;;17.53;40.58;102959.88;5121867;28;20034;-68
2023/02/28 02:45:27;;;;;;;5.75;2.83;;;;;;;17.55;40.64;102970.34;5122358;28;20039;-67
2023/02/28 02:47:55;;;;;;;7.20;3.47;;;;;;;17.50;40.50;102957.38;5121721;27;20115;-69
2023/02/28 02:50:29;;;;;;;5.50;2.88;;;;;;;17.53;40.46;102966.91;5121921;28;20392;-68
2023/02/28 02:52:57;;;;;;;;;;;;;;;17.59;40.63;102974.53;5121806;27;20042;-68
2023/02/28 02:55:23;;;;;;;6.63;2.88;;;;;;;17.57;40.40;102979.88;5122209;28;20383;-69
2023/02/28 02:57:54;;;;;;;6.85;3.33;;;;;;;17.51;40.62;102968.75;5121811;27;20574;-68
2023/02/28 03:00:35;;;;;;;7.55;3.53;;;;;;;17.50;40.56;102967.91;5121918;28;20127;-70
2023/02/28 03:03:01;;;;;;;6.82;3.20;;;;;;;17.52;40.35;102975.75;5121355;28;20086;-69
2023/02/28 03:05:35;;;;;;;8.82;3.72;;;;;;;17.47;40.63;102964.56;5121452;27;20099;-70
2023/02/28 03:08:03;;;;;;;6.25;2.78;;;;;;;17.50;40.41;102978.47;5103321;28;20100;-68
2023/02/28 03:10:39;;;;;;;7.35;3.30;;;;;;;17.50;40.47;102962.63;5121824;28;20035;-69
2023/02/28 03:13:42;;;;;;;6.68;3.25;;;;;;;17.50;40.49;102967.91;5121511;27;20034;-69
2023/02/28 03:16:25;;;;;;;6.97;3.53;;;;;;;17.50;40.46;102972.31;5121678;28;20576;-69
2023/02/28 03:19:39;;;;;;;5.22;2.80;;;;;;;17.48;40.39;102967.13;5120066;28;20031;-69
2023/02/28 03:22:25;;;;;;;6.30;3.38;;;;;;;17.49;40.62;102966.19;5107482;27;20062;-69
2023/02/28 03:24:55;;;;;;;5.97;3.05;;;;;;;17.47;40.31;102964.56;5106731;27;20096;-70
2023/02/28 03:27:30;;;;;;;5.85;3.22;;;;;;;17.47;40.33;102964.56;5121757;28;20387;-69
2023/02/28 03:30:03;;;;;;;4.72;2.80;;;;;;;17.45;40.42;102964.63;5121042;28;20031;-69
2023/02/28 03:32:42;;;;;;;7.45;3.55;;;;;;;17.42;40.43;102948.94;5121368;28;20038;-69
2023/02/28 03:35:21;;;;;;;8.20;3.50;;;;;;;17.46;40.61;102973.38;5125451;27;20042;-69
2023/02/28 03:37:50;;;;;;;6.32;3.30;;;;;;;17.45;40.35;102964.63;5125397;27;20031;-68
2023/02/28 03:40:25;;;;;;;7.95;3.17;;;;;;;17.44;40.46;102964.69;5125000;27;20344;-69
2023/02/28 03:42:59;;;;;;;7.63;3.33;;;;;;;17.45;40.63;102966.41;5124519;27;20042;-68
2023/02/28 03:45:28;;;;;;;5.93;2.80;;;;;;;17.46;40.62;102962.84;5124879;27;20031;-69
2023/02/28 03:48:02;;;;;;;7.07;3.70;;;;;;;17.45;40.58;102969.91;5124747;27;20737;-69
2023/02/28 03:50:35;;;;;;;8.25;3.60;;;;;;;17.43;40.53;102966.47;5106737;27;20130;-69
2023/02/28 03:53:06;;;;;;;7.03;3.25;;;;;;;17.44;40.54;102965.53;5124595;27;20371;-70
2023/02/28 03:55:41;;;;;;;8.43;3.38;;;;;;;17.43;40.78;102966.47;5105891;27;20035;-69
2023/02/28 03:58:13;;;;;;;6.75;3.33;;;;;;;17.45;40.45;102972.53;5125012;27;20031;-68
2023/02/28 04:00:44;;;;;;;6.20;3.42;;;;;;;17.44;40.91;102968.19;5124459;27;20035;-69
2023/02/28 04:03:09;;;;;;;5.25;2.92;;;;;;;17.45;40.82;102972.53;5124693;27;20118;-69
2023/02/28 04:05:49;;;;;;;7.28;2.70;;;;;;;17.40;40.83;102962.19;5105669;27;20134;-70
2023/02/28 04:08:15;;;;;;;6.95;3.50;;;;;;;17.44;40.96;102960.28;5124485;27;20035;-69
2023/02/28 04:10:43;;;;;;;6.30;2.83;;;;;;;17.43;40.55;102969.09;5124587;27;20069;-70
2023/02/28 04:13:08;;;;;;;5.47;3.00;;;;;;;17.44;41.05;102962.06;5124389;27;20060;-70
2023/02/28 04:15:34;;;;;;;6.13;2.70;;;;;;;17.46;41.00;102970.75;5123965;27;20414;-69
2023/02/28 04:17:59;;;;;;;5.75;2.60;;;;;;;17.43;41.06;102961.19;5124316;27;20031;-68
2023/02/28 04:20:24;;;;;;;8.13;3.15;;;;;;;17.44;40.94;102960.28;5124216;27;20441;-69
2023/02/28 04:22:49;;;;;;;6.93;3.17;;;;;;;17.45;40.91;102962.00;5124237;27;20039;-69
2023/02/28 04:25:15;;;;;;;9.15;2.70;;;;;;;17.47;40.99;102969.84;5124469;27;20045;-69
2023/02/28 04:27:40;;;;;;;6.25;3.40;;;;;;;17.48;40.84;102979.44;5105388;27;20508;-69
2023/02/28 04:30:06;;;;;;;5.47;2.50;;;;;;;17.46;41.10;102976.88;5123799;27;20264;-69
2023/02/28 04:32:31;;;;;;;6.57;3.00;;;;;;;17.46;40.97;102976.03;5124001;27;20028;-68
2023/02/28 04:34:57;;;;;;;6.75;3.00;;;;;;;17.45;40.79;102974.31;5124011;27;20043;-69
2023/02/28 04:37:27;;;;;;;5.43;2.53;;;;;;;17.47;41.05;102973.31;5123806;27;20465;-69
2023/02/28 04:39:52;;;;;;;8.02;2.65;;;;;;;17.48;40.70;102977.69;5123929;27;20110;-69
2023/02/28 04:42:18;;;;;;;7.38;2.97;;;;;;;17.46;40.68;102976.03;5123853;27;20039;-69
2023/02/28 04:44:43;;;;;;;5.95;2.63;;;;;;;17.51;41.08;102982.78;5104723;28;20176;-69
2023/02/28 04:47:08;;;;;;;5.35;2.80;;;;;;;17.48;40.83;102984.72;5123871;27;20038;-69
2023/02/28 04:49:35;;;;;;;5.47;2.53;;;;;;;17.48;40.90;102982.06;5123405;27;20031;-69
2023/02/28 04:52:00;;;;;;;5.72;2.80;;;;;;;17.52;40.96;102983.66;5123680;27;20073;-67
2023/02/28 04:54:25;;;;;;;5.10;2.53;;;;;;;17.47;41.14;102981.22;5123601;27;20055;-69
2023/02/28 04:56:51;;;;;;;6.25;3.00;;;;;;;17.52;40.76;102986.28;5123954;27;20052;-68
2023/02/28 04:59:17;;;;;;;7.07;3.15;;;;;;;17.42;40.93;102975.31;5123473;27;20047;-68
2023/02/28 05:01:46;;;;;;;6.78;2.50;;;;;;;17.50;40.90;102982.84;5123753;27;20050;-68
2023/02/28 05:04:11;;;;;;;7.38;2.50;;;;;;;17.52;40.71;102986.28;5123604;27;20081;-69
2023/02/28 05:06:36;;;;;;;6.43;2.53;;;;;;;17.53;40.85;102985.34;5122987;27;20475;-68
2023/02/28 05:09:02;;;;;;;7.90;2.88;;;;;;;17.51;40.66;102980.16;5123582;27;20297;-68
2023/02/28 05:11:34;;;;;;;7.22;2.65;;;;;;;17.52;40.61;102975.75;5123258;27;20027;-67
2023/02/28 05:14:04;;;;;;;5.68;2.72;;;;;;;17.52;40.79;102979.22;5122894;27;20083;-69
2023/02/28 05:16:30;;;;;;;4.95;2.47;;;;;;;17.52;40.79;102984.50;5122693;27;20050;-69
2023/02/28 05:18:55;;;;;;;5.97;2.50;;;;;;;17.50;40.94;102989.00;5122822;27;20096;-68
2023/02/28 05:21:25;;;;;;;7.13;2.97;;;;;;;17.52;40.65;102986.28;5122980;27;20027;-69
2023/02/28 05:23:50;;;;;;;5.13;2.40;;;;;;;17.52;40.80;102992.41;5103745;27;20016;-70
2023/02/28 05:26:16;;;;;;;5.25;2.53;;;;;;;17.53;40.72;102991.50;5122806;27;20083;-69
2023/02/28 05:28:41;;;;;;;5.18;2.30;;;;;;;17.47;41.16;102983.03;5123054;27;20150;-68
2023/02/28 05:31:10;;;;;;;4.38;2.25;;;;;;;17.49;40.89;102996.97;5122953;27;20043;-68
2023/02/28 05:33:35;;;;;;;7.47;2.40;;;;;;;17.46;40.77;102997.97;5122652;27;20468;-68
2023/02/28 05:36:01;;;;;;;6.18;1.75;;;;;;;17.48;40.34;103001.41;5122741;27;20031;-68
2023/02/28 05:38:26;;;;;;;7.20;2.10;;;;;;;17.50;39.80;103001.31;5123058;27;20039;-68
2023/02/28 05:40:53;;;;;;;4.10;1.75;;;;;;;17.49;39.87;102997.81;5123002;27;20023;-70
2023/02/28 05:43:18;;;;;;;5.78;1.88;;;;;;;17.51;39.86;102998.59;5122241;27;20027;-70
2023/02/28 05:45:43;;;;;;;4.32;1.80;;;;;;;17.59;39.70;102996.50;5122924;27;20043;-69
2023/02/28 05:48:09;;;;;;;4.88;2.20;;;;;;;17.64;39.65;103000.69;5103342;27;20027;-70
2023/02/28 05:50:34;;;;;;;5.03;1.98;;;;;;;17.65;39.76;102994.50;5122604;27;20770;-70
2023/02/28 05:52:59;;;;;;;4.85;1.77;;;;;;;17.63;39.93;102984.03;5122309;27;20058;-69
2023/02/28 05:55:25;;;;;;;7.22;2.10;;;;;;;17.72;39.59;103002.06;5122803;27;20119;-69
2023/02/28 05:57:50;;;;;;;5.20;1.55;;;;;;;17.77;39.47;103001.88;5121558;27;20062;-69
2023/02/28 06:00:17;;;;;;;5.40;1.83;;;;;;;17.82;39.49;103006.94;5103998;27;20031;-69
2023/02/28 06:02:43;;;;;;;5.30;1.70;;;;;;;17.83;39.62;102996.31;5121930;27;20074;-69
2023/02/28 06:05:16;;;;;;;6.57;1.63;;;;;;;17.85;39.61;102996.22;5122130;27;20073;-69
2023/02/28 06:07:42;;;;;;;4.45;1.80;;;;;;;17.91;39.56;103001.25;5122173;27;20110;-68
2023/02/28 06:10:10;;;;;;;4.78;1.70;;;;;;;17.91;39.41;103004.75;5122471;27;21185;-68
2023/02/28 06:12:36;;;;;;;4.32;1.60;;;;;;;17.93;39.55;103009.97;5122165;27;20507;-68
2023/02/28 06:15:02;;;;;;;6.03;1.90;;;;;;;17.92;39.48;103000.31;5121987;27;20429;-69
2023/02/28 06:17:27;;;;;;;4.82;1.83;;;;;;;17.97;39.13;103011.50;5122045;27;20055;-69
2023/02/28 06:19:53;;;;;;;5.30;1.92;;;;;;;17.96;39.53;103004.53;5121761;27;20031;-67
2023/02/28 06:22:18;;;;;;;6.28;1.95;;;;;;;17.99;39.43;103014.97;5121390;27;20035;-68
2023/02/28 06:24:43;;;;;;;4.35;1.52;;;;;;;17.95;39.33;103010.75;5122020;27;20462;-67
2023/02/28 06:27:08;;;;;;;4.13;1.30;;;;;;;17.99;39.37;103011.44;5122062;27;20031;-68
2023/02/28 06:29:35;;;;;;;3.88;1.52;;;;;;;18.03;39.34;103018.31;5121553;27;20095;-67
2023/02/28 06:32:00;;;;;;;3.80;1.70;;;;;;;18.05;39.22;103019.06;5121719;27;20033;-68
2023/02/28 06:34:25;;;;;;;5.22;1.88;;;;;;;18.02;39.48;103013.94;5121556;27;20035;-68
2023/02/28 06:36:52;;;;;;;5.15;1.60;;;;;;;18.03;39.42;103020.94;5122139;27;20533;-67
2023/02/28 06:39:17;;;;;;;4.82;1.48;;;;;;;18.04;39.36;103015.59;5121878;27;20053;-68
2023/02/28 06:41:45;;;;;;;5.25;1.60;;;;;;;18.06;39.39;103024.28;5121649;27;20023;-68
2023/02/28 06:44:16;;;;;;;4.57;1.45;;;;;;;18.05;39.58;103021.72;5121873;27;20031;-68
2023/02/28 06:46:42;;;;;;;3.83;1.70;;;;;;;18.05;39.41;103011.16;5121793;27;20109;-67
2023/02/28 06:49:08;;;;;;;6.03;1.60;;;;;;;18.06;39.40;103019.00;5121684;27;20049;-68
2023/02/28 06:51:35;;;;;;;3.80;1.52;;;;;;;18.06;39.56;103024.28;5121800;28;20039;-68
2023/02/28 06:54:00;;;;;;;5.88;2.50;;;;;;;18.08;39.56;103024.22;5121192;28;20055;-69
2023/02/28 06:56:26;;;;;;;5.65;1.70;;;;;;;18.07;39.38;103023.38;5121546;28;20107;-68
2023/02/28 06:58:52;;;;;;;5.75;1.75;;;;;;;18.09;39.39;103028.56;5121914;28;20487;-68
2023/02/28 07:01:18;;;;;;;4.53;1.58;;;;;;;18.00;39.42;103007.88;5121415;27;20035;-67
2023/02/28 07:03:45;;;;;;;4.03;1.48;;;;;;;18.04;39.63;103023.50;5102436;28;20364;-68
2023/02/28 07:06:10;;;;;;;6.85;1.80;;;;;;;18.10;39.64;103028.50;5121927;28;20027;-68
2023/02/28 07:08:36;;;;;;;4.07;1.42;;;;;;;18.11;39.29;103039.91;5122521;27;20031;-66
2023/02/28 07:11:02;;;;;;;5.88;2.00;;;;;;;18.11;39.54;103050.47;5126063;27;20031;-66
2023/02/28 07:13:27;;;;;;;6.63;2.03;;;;;;;18.08;39.49;103042.69;5125282;27;20039;-68
2023/02/28 07:15:54;;;;;;;5.55;1.60;;;;;;;18.06;39.62;103039.28;5125371;27;20062;-67
2023/02/28 07:18:20;;;;;;;4.93;1.70;;;;;;;18.07;39.60;103039.19;5125456;27;20038;-68
2023/02/28 07:20:45;;;;;;;4.72;2.20;;;;;;;18.11;39.48;103045.19;5125328;27;20027;-68
2023/02/28 07:23:10;;;;;;;6.88;2.28;;;;;;;18.09;39.86;103050.53;5125368;27;20063;-69
2023/02/28 07:25:35;;;;;;;4.63;1.87;;;;;;;18.10;39.68;103048.75;5125319;27;20050;-68
2023/02/28 07:28:01;;;;;;;4.50;1.85;;;;;;;18.09;39.89;103055.81;5125387;27;20431;-68
2023/02/28 07:30:26;;;;;;;7.00;1.80;;;;;;;18.09;39.90;103062.88;5106620;27;20058;-68
2023/02/28 07:32:51;;;;;;;4.10;1.70;;;;;;;18.09;39.76;103052.31;5125109;27;20108;-68
2023/02/28 07:35:17;;;;;;;4.75;1.73;;;;;;;18.09;39.96;103061.09;5125315;27;20508;-68
2023/02/28 07:37:42;;;;;;;5.80;1.80;;;;;;;18.06;39.95;103060.38;5125362;27;20066;-68
2023/02/28 07:40:13;;;;;;;4.00;1.50;;;;;;;18.09;39.89;103065.53;5125073;27;20167;-68
2023/02/28 07:42:40;;;;;;;5.50;1.80;;;;;;;18.08;40.07;103062.00;5124616;27;20031;-68
2023/02/28 07:45:07;;;;;;;5.00;1.70;;;;;;;18.08;40.17;103059.38;5124950;27;20121;-68
2023/02/28 07:47:32;;;;;;;4.32;1.60;;;;;;;18.07;40.13;103059.44;5125302;27;20686;-68
2023/02/28 07:49:58;;;;;;;5.60;1.77;;;;;;;18.09;39.85;103060.25;5124735;27;20031;-69
2023/02/28 07:52:23;;;;;;;4.97;1.73;;;;;;;18.08;39.94;103062.00;5125065;27;20038;-69
2023/02/28 07:54:52;;;;;;;5.65;1.60;;;;;;;18.08;39.89;103063.78;5106273;27;20031;-69
2023/02/28 07:57:18;;;;;;;6.30;1.77;;;;;;;18.13;39.97;103060.03;5125089;27;20484;-69
2023/02/28 07:59:43;;;;;;;5.03;1.88;;;;;;;18.12;39.86;103068.88;5124835;27;20534;-68
2023/02/28 08:02:17;;;;;;;7.38;1.70;;;;;;;18.13;39.65;103062.66;5124300;27;20027;-70
2023/02/28 08:04:43;;;;;;;5.03;1.90;;;;;;;18.13;39.98;103067.94;5124912;27;20042;-69
2023/02/28 08:07:09;;;;;;;4.53;1.80;;;;;;;18.18;40.30;103070.34;5124399;27;20043;-68
2023/02/28 08:09:35;;;;;;;4.95;1.77;;;;;;;18.18;40.33;103070.34;5124698;27;20020;-69
2023/02/28 08:12:00;;;;;;;3.80;1.40;;;;;;;18.22;40.79;103071.09;5105646;27;20027;-67
2023/02/28 08:14:26;;;;;;;15.02;2.00;;;;;;;18.24;40.53;103077.97;5124469;27;20031;-68
2023/02/28 08:16:51;;;;;;;4.85;1.63;;;;;;;18.24;40.82;103070.06;5124209;27;20043;-67
2023/02/28 08:19:17;;;;;;;4.82;1.48;;;;;;;18.28;40.92;103073.44;5123737;27;20134;-68
2023/02/28 08:21:42;;;;;;;4.13;1.73;;;;;;;18.30;40.65;103074.22;5123605;27;20106;-68
2023/02/28 08:24:08;;;;;;;4.97;2.00;;;;;;;18.29;40.78;103064.56;5124125;27;20030;-68
2023/02/28 08:26:33;;;;;;;4.68;1.58;;;;;;;18.30;40.82;103063.66;5124538;27;20039;-68
2023/02/28 08:28:58;;;;;;;3.63;1.58;;;;;;;18.29;41.31;103068.09;5123836;27;20044;-72
2023/02/28 08:31:24;;;;;;;6.70;1.77;;;;;;;18.36;40.88;103075.69;5105795;27;20027;-69
2023/02/28 08:33:51;;;;;;;6.35;1.95;;;;;;;18.36;40.61;103067.78;5124211;27;20110;-68
2023/02/28 08:36:17;;;;;;;3.45;1.45;;;;;;;18.38;40.84;103069.44;5123981;27;21014;-69
2023/02/28 08:38:42;;;;;;;7.18;1.88;;;;;;;18.38;40.83;103069.44;5123936;27;20152;-68
2023/02/28 08:41:11;;;;;;;7.07;1.63;;;;;;;18.37;40.89;103070.34;5124066;27;20614;-69
2023/02/28 08:43:37;;;;;;;5.25;1.60;;;;;;;18.41;40.72;103073.72;5123870;27;20085;-69
2023/02/28 08:46:03;;;;;;;8.95;3.90;;;;;;;18.39;40.82;103062.34;5123766;27;20060;-69
2023/02/28 08:48:30;;;;;;;3.78;1.80;;;;;;;18.41;40.67;103063.16;5124093;27;20067;-70
2023/02/28 08:51:05;;;;;;;3.97;1.38;;;;;;;18.40;40.75;103053.50;5123608;27;20472;-70
2023/02/28 08:53:31;;;;;;;5.68;1.67;;;;;;;18.39;40.90;103057.94;5123484;27;20031;-69
2023/02/28 08:56:02;;;;;;;4.95;1.35;;;;;;;18.40;40.81;103067.56;5123548;27;20035;-68
2023/02/28 08:58:28;;;;;;;3.88;1.40;;;;;;;18.42;40.93;103060.44;5123869;27;20042;-69
2023/02/28 09:00:53;;;;;;;5.30;1.45;;;;;;;18.39;41.27;103057.94;5104969;27;20384;-70
2023/02/28 09:03:19;;;;;;;5.82;1.50;;;;;;;18.42;41.42;103063.09;5123454;27;20060;-70
2023/02/28 09:05:57;;;;;;;5.45;1.48;;;;;;;18.46;41.32;103063.78;5123398;27;20046;-69
2023/02/28 09:08:24;;;;;;;4.38;1.67;;;;;;;18.47;41.59;103069.00;5123602;27;20035;-68
2023/02/28 09:10:49;;;;;;;8.70;1.70;;;;;;;18.47;41.58;103061.06;5123634;27;20031;-71
2023/02/28 09:13:15;;;;;;;6.55;2.08;;;;;;;18.50;41.92;103068.00;5123214;27;20033;-69
2023/02/28 09:15:40;;;;;;;6.70;1.35;;;;;;;18.53;41.48;103074.91;5123095;27;20171;-70
2023/02/28 09:18:05;;;;;;;7.65;1.60;;;;;;;18.54;41.58;103068.69;5104533;27;20031;-68
2023/02/28 09:20:31;;;;;;;5.00;1.70;;;;;;;18.54;41.81;103061.63;5123514;27;20035;-69
2023/02/28 09:22:56;;;;;;;4.60;1.55;;;;;;;18.55;41.72;103065.13;5123158;27;20042;-69
2023/02/28 09:25:21;;;;;;;4.75;1.60;;;;;;;18.55;41.68;103058.06;5123179;27;20069;-69
2023/02/28 09:27:47;;;;;;;4.38;1.42;;;;;;;18.57;41.21;103055.34;5123017;27;20094;-68
2023/02/28 09:30:12;;;;;;;4.85;1.48;;;;;;;18.56;41.68;103061.56;5123008;27;20035;-68
2023/02/28 09:32:38;;;;;;;6.00;1.83;;;;;;;18.58;41.43;103057.03;5122876;27;20027;-69
2023/02/28 09:35:04;;;;;;;5.25;1.35;;;;;;;18.58;41.54;103062.31;5122907;27;20110;-70
2023/02/28 09:37:30;;;;;;;4.57;1.20;;;;;;;18.57;41.67;103058.84;5123035;27;20031;-68
2023/02/28 09:39:56;;;;;;;5.68;1.33;;;;;;;18.60;41.75;103068.41;5122862;27;20039;-69
2023/02/28 09:42:27;;;;;;;5.88;1.23;;;;;;;18.58;41.83;103065.84;5122902;27;20054;-68
2023/02/28 09:44:53;;;;;;;6.68;1.55;;;;;;;18.62;41.85;103077.09;5122486;27;20031;-68
2023/02/28 09:47:29;;;;;;;4.68;1.60;;;;;;;18.60;42.07;103065.78;5122612;27;20112;-69
2023/02/28 09:50:00;;;;;;;4.93;1.50;;;;;;;18.61;41.72;103060.41;5122429;27;20074;-69
2023/02/28 09:52:31;;;;;;;6.43;1.25;;;;;;;18.65;41.62;103074.31;5122765;27;20031;-68
2023/02/28 09:55:12;;;;;;;7.28;1.73;;;;;;;18.63;41.70;103058.53;5120353;27;20024;-68
2023/02/28 09:57:41;;;;;;;5.43;1.48;;;;;;;18.67;42.34;103070.69;5121559;27;20096;-70
2023/02/28 10:00:18;;;;;;;3.75;1.23;;;;;;;18.72;42.47;103059.88;5122627;27;20027;-71
2023/02/28 10:02:58;;;;;;;5.07;1.40;;;;;;;18.78;42.57;103064.84;5121759;27;20374;-69
2023/02/28 10:05:32;;;;;;;3.72;1.25;;;;;;;18.81;42.48;103067.34;5125943;27;20027;-70
2023/02/28 10:08:10;;;;;;;8.98;1.40;;;;;;;18.84;42.46;103059.31;5102208;27;20134;-71
2023/02/28 10:10:43;;;;;;;3.28;1.15;;;;;;;18.88;42.76;103056.50;5123261;27;20035;-70
2023/02/28 10:13:26;;;;;;;4.30;1.35;;;;;;;18.88;43.07;103062.63;5122288;27;20118;-70
2023/02/28 10:16:01;;;;;;;4.07;1.43;;;;;;;18.89;42.81;103058.22;5121754;27;20043;-68
2023/02/28 10:18:35;;;;;;;7.25;1.70;;;;;;;18.91;42.85;103046.63;5104361;27;20517;-71
2023/02/28 10:21:00;;;;;;;;;;;;;;;19.00;42.84;103061.19;5122596;27;20543;-70
2023/02/28 10:23:31;;;;;;;5.13;1.33;;;;;;;18.97;42.78;103054.25;5103949;27;20034;-70
2023/02/28 10:26:10;;;;;;;5.78;1.42;;;;;;;18.96;42.98;103044.66;5123004;27;20034;-70
2023/02/28 10:28:36;;;;;;;5.15;1.50;;;;;;;18.94;42.83;103049.13;5122558;27;20035;-68
2023/02/28 10:31:02;;;;;;;5.32;2.00;;;;;;;18.93;43.52;103044.78;5121864;27;20039;-69
2023/02/28 10:33:31;;;;;;;3.55;1.58;;;;;;;18.95;43.47;103040.28;5121283;27;20575;-70
2023/02/28 10:35:58;;;;;;;6.53;1.40;;;;;;;18.94;42.13;103032.44;5122035;27;20066;-70
2023/02/28 10:38:32;;;;;;;5.28;1.30;;;;;;;18.94;41.96;103048.28;5121906;27;20034;-72
2023/02/28 10:41:10;;;;;;;5.65;1.30;;;;;;;18.94;42.31;103037.72;5121595;28;20038;-72
2023/02/28 10:43:37;;;;;;;6.60;1.50;;;;;;;18.92;42.86;103029.03;5120856;27;21047;-76
2023/02/28 10:46:14;;;;;;;5.03;1.20;;;;;;;18.88;42.37;103033.59;5121689;28;20059;-74
2023/02/28 10:48:44;;;;;;;5.63;1.23;;;;;;;18.91;42.44;103038.72;5102230;28;20120;-72
2023/02/28 10:51:12;;;;;;;6.97;1.17;;;;;;;18.91;42.25;103036.06;5121812;28;20031;-72
2023/02/28 10:53:51;;;;;;;4.85;1.20;;;;;;;18.93;42.64;103044.78;5121743;28;20035;-74
2023/02/28 10:56:21;;;;;;;4.32;1.20;;;;;;;18.93;42.44;103033.34;5122552;28;20068;-71
2023/02/28 10:59:15;;;;;;;4.05;1.20;;;;;;;18.95;42.48;103042.09;5122227;27;20159;-70
2023/02/28 11:01:48;;;;;;;5.53;1.25;;;;;;;18.97;42.63;103024.34;5112424;27;20046;-72
2023/02/28 11:04:21;;;;;;;4.43;1.30;;;;;;;19.02;42.30;103028.44;5121842;27;20479;-69
2023/02/28 11:06:47;;;;;;;4.97;1.40;;;;;;;19.09;42.38;103023.75;5123379;28;20063;-68
2023/02/28 11:09:24;;;;;;;5.35;1.10;;;;;;;19.12;42.36;103017.41;5125672;28;20527;-69
2023/02/28 11:11:52;;;;;;;4.32;1.30;;;;;;;19.12;42.61;103014.78;5122274;28;20067;-74
2023/02/28 11:14:21;;;;;;;4.63;1.00;;;;;;;19.15;42.41;103020.78;5123275;28;20044;-72
2023/02/28 11:16:49;;;;;;;6.68;1.00;;;;;;;19.15;42.19;103020.78;5121232;28;20043;-68
2023/02/28 11:19:40;;;;;;;5.28;1.20;;;;;;;19.12;42.56;103026.22;5120746;28;20051;-68
2023/02/28 11:22:06;;;;;;;4.88;1.40;;;;;;;19.21;42.74;103023.09;5120031;27;20085;-68
2023/02/28 11:24:37;;;;;;;5.15;1.33;;;;;;;19.19;42.42;103018.81;5120574;28;20042;-68
2023/02/28 11:27:03;;;;;;;3.55;1.20;;;;;;;19.17;42.90;103013.63;5121433;27;20175;-70
2023/02/28 11:29:31;;;;;;;4.47;1.27;;;;;;;19.17;42.93;103015.41;5121032;28;20484;-69
2023/02/28 11:32:20;;;;;;;7.57;1.38;;;;;;;19.18;42.85;103017.09;5120806;28;20079;-68
2023/02/28 11:34:59;;;;;;;5.38;1.20;;;;;;;19.17;43.17;103005.69;5120968;28;20027;-70